createdAt,value
2022-09-11T00:00:36.635Z,94646.66
2022-09-11T00:01:33.836Z,94631.50
2022-09-11T00:02:30.591Z,94661.28
2022-09-11T00:03:30.007Z,94667.19
2022-09-11T00:04:27.621Z,94658.59
2022-09-11T00:05:25.965Z,94662.09
2022-09-11T00:06:29.888Z,94603.22
2022-09-11T00:07:27.143Z,94658.94
2022-09-11T00:08:23.886Z,94447.69
2022-09-11T00:09:20.597Z,94613.44
2022-09-11T00:10:17.696Z,94645.34
2022-09-11T00:11:17.598Z,94619.25
2022-09-11T00:12:14.321Z,94636.34
2022-09-11T00:13:14.466Z,94612.94
2022-09-11T00:14:15.102Z,94626.50
2022-09-11T00:15:12.131Z,94632.84
2022-09-11T00:16:21.312Z,94628.66
2022-09-11T00:17:18.397Z,94656.28
2022-09-11T00:18:17.646Z,94640.09
2022-09-11T00:19:18.833Z,94649.13
2022-09-11T00:20:15.707Z,94641.16
2022-09-11T00:21:12.841Z,94592.72
2022-09-11T00:22:09.534Z,94664.34
2022-09-11T00:23:06.610Z,94638.00
2022-09-11T00:24:04.617Z,94644.06
2022-09-11T00:25:01.319Z,94671.53
2022-09-11T00:26:02.655Z,94650.44
2022-09-11T00:26:59.322Z,94664.03
2022-09-11T00:27:56.074Z,94676.56
2022-09-11T00:28:52.925Z,94642.72
2022-09-11T00:29:49.754Z,94648.66
2022-09-11T00:31:02.849Z,94658.75
2022-09-11T00:31:59.636Z,94666.97
2022-09-11T00:32:57.094Z,94646.75
2022-09-11T00:33:55.101Z,94635.22
2022-09-11T00:34:51.776Z,94649.16
2022-09-11T00:35:58.402Z,94661.69
2022-09-11T00:36:55.102Z,94632.16
2022-09-11T00:37:52.087Z,94668.84
2022-09-11T00:38:50.354Z,94650.75
2022-09-11T00:39:47.931Z,94608.16
2022-09-11T00:40:46.542Z,94631.38
2022-09-11T00:41:46.201Z,94663.84
2022-09-11T00:42:43.111Z,94501.78
2022-09-11T00:43:59.797Z,94633.22
2022-09-11T00:45:00.904Z,94670.50
2022-09-11T00:46:04.809Z,94673.16
2022-09-11T00:47:09.098Z,94620.44
2022-09-11T00:48:06.066Z,94523.06
2022-09-11T00:49:15.942Z,94633.25
2022-09-11T00:50:19.519Z,94635.66
2022-09-11T00:51:28.096Z,94648.66
2022-09-11T00:52:41.065Z,94644.44
2022-09-11T00:53:38.616Z,94640.72
2022-09-11T00:54:44.072Z,94664.13
2022-09-11T00:55:47.976Z,94655.63
2022-09-11T00:56:44.845Z,94516.13
2022-09-11T00:57:50.047Z,94664.69
2022-09-11T00:58:51.339Z,94639.38
2022-09-11T00:59:50.769Z,94652.97
2022-09-11T01:00:49.154Z,94538.50
2022-09-11T01:01:46.204Z,94636.69
2022-09-11T01:02:48.953Z,94662.06
2022-09-11T01:03:45.858Z,94676.69
2022-09-11T01:04:43.434Z,94671.34
2022-09-11T01:05:43.452Z,94649.78
2022-09-11T01:06:40.780Z,94652.44
2022-09-11T01:07:40.251Z,94669.22
2022-09-11T01:08:38.535Z,94671.09
2022-09-11T01:09:35.383Z,94670.59
2022-09-11T01:10:50.799Z,94658.06
2022-09-11T01:12:15.461Z,94654.56
2022-09-11T01:13:29.795Z,94511.88
2022-09-11T01:14:34.721Z,94643.66
2022-09-11T01:16:00.079Z,94642.06
2022-09-11T01:17:15.281Z,94660.94
2022-09-11T01:18:27.302Z,94658.84
2022-09-11T01:19:37.158Z,94646.31
2022-09-11T01:20:46.298Z,94663.66
2022-09-11T01:22:04.742Z,94643.94
2022-09-11T01:23:36.024Z,94646.59
2022-09-11T01:24:51.481Z,94646.06
2022-09-11T01:26:06.117Z,94640.19
2022-09-11T01:27:17.867Z,94649.78
2022-09-11T01:28:25.896Z,94660.69
2022-09-11T01:29:28.981Z,94643.91
2022-09-11T01:30:43.278Z,94669.50
2022-09-11T01:31:55.841Z,94663.09
2022-09-11T01:33:29.762Z,94646.06
2022-09-11T01:34:32.429Z,94645.00
2022-09-11T01:35:57.165Z,94643.91
2022-09-11T01:37:03.693Z,94655.63
2022-09-11T01:38:15.577Z,94573.63
2022-09-11T01:39:18.021Z,94598.91
2022-09-11T01:40:49.486Z,94606.09
2022-09-11T01:42:01.963Z,94633.03
2022-09-11T01:43:08.872Z,94591.75
2022-09-11T01:44:34.629Z,94632.22
2022-09-11T01:45:34.841Z,94616.22
2022-09-11T01:46:38.681Z,94614.88
2022-09-11T01:47:38.023Z,94560.34
2022-09-11T01:49:03.002Z,94553.97
2022-09-11T01:50:10.778Z,94642.59
2022-09-11T01:51:15.904Z,94627.94
2022-09-11T01:52:18.899Z,94602.66
2022-09-11T01:53:22.035Z,94634.88
2022-09-11T01:54:23.821Z,94632.47
2022-09-11T01:55:40.126Z,94636.19
2022-09-11T01:56:45.471Z,94632.22
2022-09-11T01:57:58.638Z,94589.34
2022-09-11T01:59:01.893Z,94544.91
2022-09-11T02:00:02.707Z,94633.28
2022-09-11T02:01:25.289Z,94614.63
2022-09-11T02:02:33.041Z,94594.91
2022-09-11T02:03:46.572Z,94604.53
2022-09-11T02:05:01.729Z,94636.47
2022-09-11T02:06:07.680Z,94631.94
2022-09-11T02:07:09.957Z,94613.03
2022-09-11T02:08:21.905Z,94619.41
2022-09-11T02:09:25.901Z,94606.09
2022-09-11T02:10:39.984Z,94609.56
2022-09-11T02:11:42.223Z,94610.09
2022-09-11T02:12:51.650Z,94572.84
2022-09-11T02:14:10.466Z,94607.44
2022-09-11T02:15:09.114Z,94488.22
2022-09-11T02:16:18.362Z,94607.16
2022-09-11T02:17:26.678Z,94625.81
2022-09-11T02:18:28.440Z,94618.34
2022-09-11T02:19:29.510Z,94595.72
2022-09-11T02:20:26.314Z,94602.31
2022-09-11T02:21:23.134Z,94588.53
2022-09-11T02:22:20.378Z,94586.38
2022-09-11T02:23:17.375Z,94622.09
2022-09-11T02:24:15.826Z,94627.16
2022-09-11T02:25:13.757Z,94537.41
2022-09-11T02:26:14.723Z,94603.16
2022-09-11T02:27:17.391Z,94473.31
2022-09-11T02:28:14.607Z,94603.72
2022-09-11T02:29:13.251Z,94502.56
2022-09-11T02:30:10.724Z,94626.06
2022-09-11T02:31:08.226Z,94595.97
2022-09-11T02:32:06.828Z,94601.56
2022-09-11T02:33:04.616Z,94599.97
2022-09-11T02:34:01.294Z,94617.03
2022-09-11T02:35:00.173Z,94630.09
2022-09-11T02:36:15.047Z,94615.69
2022-09-11T02:37:31.377Z,94613.25
2022-09-11T02:38:46.728Z,94602.09
2022-09-11T02:40:15.630Z,94614.84
2022-09-11T02:41:32.503Z,94628.97
2022-09-11T02:42:54.204Z,94611.41
2022-09-11T02:44:12.851Z,94616.19
2022-09-11T02:45:20.742Z,94606.13
2022-09-11T02:46:20.245Z,94609.84
2022-09-11T02:47:41.759Z,94608.50
2022-09-11T02:49:11.233Z,94603.69
2022-09-11T02:50:20.315Z,94609.31
2022-09-11T02:51:41.899Z,94602.66
2022-09-11T02:52:48.021Z,94603.19
2022-09-11T02:54:07.078Z,94606.09
2022-09-11T02:55:19.484Z,94618.91
2022-09-11T02:56:44.709Z,94623.69
2022-09-11T02:58:21.752Z,94578.69
2022-09-11T02:59:42.212Z,94592.53
2022-09-11T03:00:40.094Z,94605.03
2022-09-11T03:02:10.548Z,94574.16
2022-09-11T03:03:07.519Z,94625.81
2022-09-11T03:04:04.438Z,94623.66
2022-09-11T03:05:01.542Z,94599.72
2022-09-11T03:05:58.431Z,94573.88
2022-09-11T03:06:58.331Z,94595.47
2022-09-11T03:07:55.068Z,94626.34
2022-09-11T03:08:51.745Z,94621.00
2022-09-11T03:09:48.596Z,94620.22
2022-09-11T03:10:46.732Z,94637.00
2022-09-11T03:11:45.427Z,94631.91
2022-09-11T03:12:42.280Z,94636.19
2022-09-11T03:13:38.999Z,94640.38
2022-09-11T03:14:36.011Z,94638.00
2022-09-11T03:15:34.022Z,94635.09
2022-09-11T03:16:30.878Z,94630.28
2022-09-11T03:17:27.587Z,94485.94
2022-09-11T03:18:24.306Z,94630.84
2022-09-11T03:19:20.970Z,94625.25
2022-09-11T03:20:19.206Z,94636.44
2022-09-11T03:21:16.922Z,94621.53
2022-09-11T03:22:14.721Z,94555.97
2022-09-11T03:23:11.446Z,94635.09
2022-09-11T03:24:09.749Z,94622.81
2022-09-11T03:25:07.038Z,94623.28
2022-09-11T03:26:03.725Z,94638.53
2022-09-11T03:27:00.774Z,94619.91
2022-09-11T03:27:57.525Z,94632.94
2022-09-11T03:28:54.297Z,94619.28
2022-09-11T03:29:50.987Z,94629.41
2022-09-11T03:30:49.226Z,94604.34
2022-09-11T03:31:46.707Z,94588.41
2022-09-11T03:32:43.420Z,94633.59
2022-09-11T03:33:40.213Z,94643.03
2022-09-11T03:34:36.950Z,94608.63
2022-09-11T03:35:34.597Z,94519.72
2022-09-11T03:36:31.266Z,94630.81
2022-09-11T03:37:28.373Z,94620.66
2022-09-11T03:38:25.120Z,94653.41
2022-09-11T03:39:21.795Z,94635.84
2022-09-11T03:40:20.344Z,94601.66
2022-09-11T03:41:16.997Z,94646.75
2022-09-11T03:42:13.773Z,94655.56
2022-09-11T03:43:12.314Z,94621.47
2022-09-11T03:44:09.128Z,94660.66
2022-09-11T03:45:06.084Z,94642.28
2022-09-11T03:46:03.241Z,94647.84
2022-09-11T03:47:00.309Z,94651.31
2022-09-11T03:47:57.521Z,94606.44
2022-09-11T03:48:54.594Z,94653.31
2022-09-11T03:49:51.279Z,94643.22
2022-09-11T03:50:48.541Z,94641.25
2022-09-11T03:51:45.216Z,94650.88
2022-09-11T03:52:43.395Z,94656.72
2022-09-11T03:53:40.513Z,94653.56
2022-09-11T03:54:37.290Z,94640.75
2022-09-11T03:55:34.086Z,94603.19
2022-09-11T03:56:31.710Z,94653.41
2022-09-11T03:57:28.426Z,94617.88
2022-09-11T03:58:25.142Z,94640.63
2022-09-11T03:59:21.834Z,94655.25
2022-09-11T04:00:18.592Z,94648.03
2022-09-11T04:01:19.015Z,94663.22
2022-09-11T04:02:15.949Z,94650.16
2022-09-11T04:03:15.515Z,94528.31
2022-09-11T04:04:13.145Z,94641.25
2022-09-11T04:05:10.673Z,94671.28
2022-09-11T04:06:08.160Z,94643.09
2022-09-11T04:07:04.876Z,94666.47
2022-09-11T04:08:02.238Z,94649.97
2022-09-11T04:08:59.386Z,94609.97
2022-09-11T04:09:56.079Z,94658.50
2022-09-11T04:11:06.752Z,94671.25
2022-09-11T04:12:03.509Z,94652.94
2022-09-11T04:13:01.677Z,94633.94
2022-09-11T04:13:59.367Z,94652.66
2022-09-11T04:14:57.106Z,94670.69
2022-09-11T04:15:56.839Z,94594.44
2022-09-11T04:16:53.947Z,94638.16
2022-09-11T04:17:50.655Z,94679.69
2022-09-11T04:18:47.623Z,94631.53
2022-09-11T04:19:44.495Z,94659.53
2022-09-11T04:20:41.238Z,94666.97
2022-09-11T04:21:40.577Z,94664.31
2022-09-11T04:22:38.093Z,94621.13
2022-09-11T04:23:34.813Z,94511.47
2022-09-11T04:24:31.656Z,94653.75
2022-09-11T04:25:28.333Z,94673.41
2022-09-11T04:26:27.352Z,94675.03
2022-09-11T04:27:24.840Z,94658.84
2022-09-11T04:28:22.435Z,94554.66
2022-09-11T04:29:19.191Z,94663.69
2022-09-11T04:30:16.312Z,94673.22
2022-09-11T04:31:15.893Z,94621.78
2022-09-11T04:32:13.291Z,94659.19
2022-09-11T04:33:10.027Z,94656.50
2022-09-11T04:34:07.503Z,94665.31
2022-09-11T04:35:04.381Z,94670.94
2022-09-11T04:36:05.797Z,94654.50
2022-09-11T04:37:03.157Z,94669.38
2022-09-11T04:37:59.825Z,94591.03
2022-09-11T04:38:58.404Z,94570.03
2022-09-11T04:39:55.251Z,94662.22
2022-09-11T04:40:53.254Z,94669.94
2022-09-11T04:41:50.075Z,94627.88
2022-09-11T04:42:46.798Z,94636.84
2022-09-11T04:43:43.771Z,94668.88
2022-09-11T04:44:40.606Z,94668.88
2022-09-11T04:45:37.560Z,94520.53
2022-09-11T04:46:34.604Z,94670.25
2022-09-11T04:47:31.734Z,94683.78
2022-09-11T04:48:28.943Z,94594.28
2022-09-11T04:49:25.631Z,94630.53
2022-09-11T04:50:22.365Z,94661.69
2022-09-11T04:51:23.394Z,94657.97
2022-09-11T04:52:20.802Z,94567.06
2022-09-11T04:53:17.476Z,94663.56
2022-09-11T04:54:16.659Z,94607.25
2022-09-11T04:55:13.381Z,94615.63
2022-09-11T04:56:15.637Z,94601.47
2022-09-11T04:57:12.473Z,94669.44
2022-09-11T04:58:10.135Z,94673.44
2022-09-11T04:59:13.537Z,94610.84
2022-09-11T05:00:11.190Z,94615.38
2022-09-11T05:01:15.785Z,94666.78
2022-09-11T05:02:12.574Z,94667.06
2022-09-11T05:03:09.337Z,94665.75
2022-09-11T05:04:06.849Z,94673.22
2022-09-11T05:05:03.823Z,94675.88
2022-09-11T05:06:05.659Z,94586.41
2022-09-11T05:07:02.678Z,94680.41
2022-09-11T05:07:59.362Z,94660.16
2022-09-11T05:09:00.665Z,94648.97
2022-09-11T05:09:57.394Z,94678.53
2022-09-11T05:10:55.142Z,94677.47
2022-09-11T05:11:51.868Z,94676.41
2022-09-11T05:12:48.563Z,94668.69
2022-09-11T05:13:45.347Z,94683.34
2022-09-11T05:14:42.150Z,94683.34
2022-09-11T05:15:38.842Z,94680.69
2022-09-11T05:16:37.043Z,94643.66
2022-09-11T05:17:34.406Z,94676.47
2022-09-11T05:18:31.926Z,94667.38
2022-09-11T05:19:28.593Z,94670.06
2022-09-11T05:20:25.287Z,94667.66
2022-09-11T05:21:24.251Z,94673.78
2022-09-11T05:22:20.919Z,94674.28
2022-09-11T05:23:17.601Z,94676.69
2022-09-11T05:24:14.772Z,94670.56
2022-09-11T05:25:11.592Z,94658.81
2022-09-11T05:26:18.012Z,94655.66
2022-09-11T05:27:15.142Z,94682.28
2022-09-11T05:28:11.890Z,94675.38
2022-09-11T05:29:13.937Z,94601.56
2022-09-11T05:30:11.514Z,94662.25
2022-09-11T05:31:17.048Z,94641.22
2022-09-11T05:32:13.920Z,94665.75
2022-09-11T05:33:10.617Z,94628.75
2022-09-11T05:34:07.905Z,94664.09
2022-09-11T05:35:05.034Z,94660.88
2022-09-11T05:36:05.414Z,94673.94
2022-09-11T05:37:02.340Z,94615.63
2022-09-11T05:37:59.066Z,94622.28
2022-09-11T05:38:55.756Z,94662.75
2022-09-11T05:39:52.665Z,94674.44
2022-09-11T05:40:51.924Z,94614.00
2022-09-11T05:41:51.671Z,94658.69
2022-09-11T05:42:48.364Z,94655.78
2022-09-11T05:43:45.315Z,94678.44
2022-09-11T05:44:42.026Z,94612.41
2022-09-11T05:45:38.737Z,94663.78
2022-09-11T05:46:35.469Z,94677.44
2022-09-11T05:47:33.343Z,94661.63
2022-09-11T05:48:32.383Z,94667.22
2022-09-11T05:49:29.119Z,94664.03
2022-09-11T05:50:25.897Z,94672.03
2022-09-11T05:51:22.891Z,94620.09
2022-09-11T05:52:19.559Z,94666.19
2022-09-11T05:53:16.726Z,94654.44
2022-09-11T05:54:13.450Z,94664.81
2022-09-11T05:55:10.187Z,94663.75
2022-09-11T05:56:15.812Z,94675.63
2022-09-11T05:57:12.810Z,94685.84
2022-09-11T05:58:09.554Z,94658.97
2022-09-11T05:59:14.302Z,94675.22
2022-09-11T06:00:13.291Z,94623.81
2022-09-11T06:01:15.348Z,94663.72
2022-09-11T06:02:12.297Z,94681.66
2022-09-11T06:03:11.490Z,94552.84
2022-09-11T06:04:12.773Z,94670.63
2022-09-11T06:05:09.628Z,94687.50
2022-09-11T06:06:09.371Z,94679.50
2022-09-11T06:07:06.082Z,94566.06
2022-09-11T06:08:02.752Z,94603.06
2022-09-11T06:08:59.677Z,94646.94
2022-09-11T06:10:02.347Z,94691.16
2022-09-11T06:11:00.709Z,94686.94
2022-09-11T06:11:57.380Z,94678.44
2022-09-11T06:12:54.126Z,94569.03
2022-09-11T06:13:50.981Z,94685.38
2022-09-11T06:14:47.668Z,94675.19
2022-09-11T06:15:47.311Z,94686.88
2022-09-11T06:16:44.177Z,94687.50
2022-09-11T06:17:40.880Z,94700.84
2022-09-11T06:18:37.630Z,94656.31
2022-09-11T06:19:34.405Z,94562.69
2022-09-11T06:20:31.096Z,94692.31
2022-09-11T06:21:29.234Z,94498.03
2022-09-11T06:22:28.850Z,94699.25
2022-09-11T06:23:26.080Z,94647.28
2022-09-11T06:24:22.797Z,94686.34
2022-09-11T06:25:19.492Z,94695.97
2022-09-11T06:26:19.512Z,94693.88
2022-09-11T06:27:17.089Z,94681.38
2022-09-11T06:28:13.995Z,94686.44
2022-09-11T06:29:14.747Z,94670.41
2022-09-11T06:30:12.224Z,94687.13
2022-09-11T06:31:13.310Z,94676.66
2022-09-11T06:32:10.029Z,94697.66
2022-09-11T06:33:06.902Z,94682.81
2022-09-11T06:34:04.158Z,94692.47
2022-09-11T06:35:00.854Z,94690.56
2022-09-11T06:36:01.627Z,94663.19
2022-09-11T06:36:58.410Z,94698.63
2022-09-11T06:37:55.120Z,94648.09
2022-09-11T06:38:57.269Z,94717.63
2022-09-11T06:39:54.061Z,94702.97
2022-09-11T06:40:51.534Z,94682.44
2022-09-11T06:41:48.474Z,94700.31
2022-09-11T06:42:45.653Z,94701.34
2022-09-11T06:43:43.309Z,94700.84
2022-09-11T06:44:41.971Z,94705.06
2022-09-11T06:45:39.134Z,94693.88
2022-09-11T06:46:36.137Z,94549.56
2022-09-11T06:47:32.829Z,94688.28
2022-09-11T06:48:30.417Z,94705.56
2022-09-11T06:49:27.381Z,94695.41
2022-09-11T06:50:24.078Z,94705.31
2022-09-11T06:51:23.358Z,94695.22
2022-09-11T06:52:20.090Z,94656.56
2022-09-11T06:53:16.765Z,94704.44
2022-09-11T06:54:13.433Z,94702.19
2022-09-11T06:55:13.514Z,94705.44
2022-09-11T06:56:13.624Z,94527.66
2022-09-11T06:57:10.299Z,94662.25
2022-09-11T06:58:08.510Z,94682.13
2022-09-11T06:59:05.198Z,94702.69
2022-09-11T07:00:02.703Z,94692.97
2022-09-11T07:01:07.809Z,94701.66
2022-09-11T07:02:04.942Z,94653.84
2022-09-11T07:03:02.414Z,94700.72
2022-09-11T07:03:59.229Z,94573.44
2022-09-11T07:04:55.932Z,94696.16
2022-09-11T07:05:52.628Z,94699.56
2022-09-11T07:06:50.345Z,94671.56
2022-09-11T07:07:48.307Z,94689.78
2022-09-11T07:08:52.111Z,94595.81
2022-09-11T07:09:48.784Z,94705.13
2022-09-11T07:10:46.026Z,94694.88
2022-09-11T07:11:44.962Z,94574.69
2022-09-11T07:12:41.859Z,94647.63
2022-09-11T07:13:39.522Z,94679.31
2022-09-11T07:14:38.318Z,94525.09
2022-09-11T07:15:35.020Z,94697.47
2022-09-11T07:16:33.536Z,94576.72
2022-09-11T07:17:30.302Z,94691.13
2022-09-11T07:18:27.007Z,94680.59
2022-09-11T07:19:25.678Z,94695.34
2022-09-11T07:20:22.511Z,94650.75
2022-09-11T07:21:22.555Z,94708.78
2022-09-11T07:22:19.782Z,94700.56
2022-09-11T07:23:16.766Z,94699.94
2022-09-11T07:24:13.529Z,94713.50
2022-09-11T07:25:10.215Z,94702.44
2022-09-11T07:26:11.097Z,94684.16
2022-09-11T07:27:08.622Z,94681.94
2022-09-11T07:28:05.426Z,94700.50
2022-09-11T07:29:02.676Z,94696.16
2022-09-11T07:29:59.352Z,94696.50
2022-09-11T07:31:03.866Z,94689.78
2022-09-11T07:32:00.562Z,94684.69
2022-09-11T07:32:57.449Z,94655.19
2022-09-11T07:33:55.054Z,94671.25
2022-09-11T07:34:51.731Z,94575.25
2022-09-11T07:35:48.410Z,94679.91
2022-09-11T07:36:45.675Z,94690.59
2022-09-11T07:37:42.355Z,94694.72
2022-09-11T07:38:40.757Z,94632.44
2022-09-11T07:39:37.528Z,94648.81
2022-09-11T07:40:34.252Z,94695.44
2022-09-11T07:41:31.887Z,94684.09
2022-09-11T07:42:29.182Z,94695.19
2022-09-11T07:43:26.241Z,94696.81
2022-09-11T07:44:23.470Z,94650.84
2022-09-11T07:45:22.730Z,94701.72
2022-09-11T07:46:19.725Z,94634.69
2022-09-11T07:47:16.731Z,94686.47
2022-09-11T07:48:13.562Z,94682.84
2022-09-11T07:49:11.318Z,94689.19
2022-09-11T07:50:08.377Z,94698.59
2022-09-11T07:51:10.488Z,94693.06
2022-09-11T07:52:07.310Z,94707.25
2022-09-11T07:53:03.986Z,94694.94
2022-09-11T07:54:01.277Z,94592.00
2022-09-11T07:54:58.066Z,94650.63
2022-09-11T07:55:56.086Z,94692.28
2022-09-11T07:56:52.762Z,94684.47
2022-09-11T07:57:51.999Z,94666.50
2022-09-11T07:58:49.884Z,94680.13
2022-09-11T07:59:46.577Z,94692.78
2022-09-11T08:00:43.355Z,94688.81
2022-09-11T08:01:42.633Z,94673.66
2022-09-11T08:02:39.339Z,94640.00
2022-09-11T08:03:37.458Z,94685.72
2022-09-11T08:04:34.351Z,94669.91
2022-09-11T08:05:31.094Z,94681.44
2022-09-11T08:06:31.418Z,94672.75
2022-09-11T08:07:28.627Z,94683.91
2022-09-11T08:08:26.276Z,94629.88
2022-09-11T08:09:27.157Z,94683.75
2022-09-11T08:10:27.662Z,94550.16
2022-09-11T08:11:26.914Z,94626.00
2022-09-11T08:12:23.863Z,94679.97
2022-09-11T08:13:20.569Z,94666.94
2022-09-11T08:14:17.812Z,94626.13
2022-09-11T08:15:14.688Z,94620.25
2022-09-11T08:16:11.368Z,94645.84
2022-09-11T08:17:08.138Z,94671.38
2022-09-11T08:18:04.958Z,94644.44
2022-09-11T08:19:02.481Z,94665.38
2022-09-11T08:19:59.201Z,94604.94
2022-09-11T08:21:04.546Z,94604.16
2022-09-11T08:22:01.212Z,94670.72
2022-09-11T08:22:58.249Z,94660.72
2022-09-11T08:23:55.142Z,94637.97
2022-09-11T08:24:51.816Z,94657.00
2022-09-11T08:25:48.538Z,94656.22
2022-09-11T08:26:48.749Z,94671.72
2022-09-11T08:27:45.750Z,94653.13
2022-09-11T08:28:43.678Z,94658.47
2022-09-11T08:29:40.348Z,94663.75
2022-09-11T08:30:38.575Z,94639.47
2022-09-11T08:31:35.939Z,94648.09
2022-09-11T08:32:32.651Z,94589.97
2022-09-11T08:33:30.229Z,94646.22
2022-09-11T08:34:27.551Z,94666.28
2022-09-11T08:35:24.448Z,94650.25
2022-09-11T08:36:21.794Z,94653.50
2022-09-11T08:37:18.475Z,94657.31
2022-09-11T08:38:15.154Z,94621.22
2022-09-11T08:39:11.865Z,94661.09
2022-09-11T08:40:10.447Z,94667.97
2022-09-11T08:41:25.890Z,94658.75
2022-09-11T08:42:23.330Z,94620.84
2022-09-11T08:43:28.079Z,94547.88
2022-09-11T08:44:35.139Z,94653.94
2022-09-11T08:45:36.195Z,94647.22
2022-09-11T08:46:47.499Z,94668.88
2022-09-11T08:47:53.815Z,94544.94
2022-09-11T08:49:06.293Z,94656.41
2022-09-11T08:50:12.800Z,94661.94
2022-09-11T08:51:16.583Z,94664.25
2022-09-11T08:52:16.803Z,94660.91
2022-09-11T08:53:17.594Z,94635.94
2022-09-11T08:54:41.626Z,94646.22
2022-09-11T08:55:56.580Z,94602.22
2022-09-11T08:57:07.082Z,94639.81
2022-09-11T08:58:15.813Z,94634.59
2022-09-11T08:59:17.703Z,94638.22
2022-09-11T09:00:20.572Z,94605.66
2022-09-11T09:01:34.033Z,94642.56
2022-09-11T09:02:57.960Z,94632.44
2022-09-11T09:04:09.857Z,94644.50
2022-09-11T09:05:09.224Z,94636.69
2022-09-11T09:06:41.130Z,94631.91
2022-09-11T09:07:56.276Z,94639.97
2022-09-11T09:09:01.943Z,94634.81
2022-09-11T09:10:07.771Z,94655.38
2022-09-11T09:11:14.139Z,94634.25
2022-09-11T09:12:20.946Z,94629.38
2022-09-11T09:13:39.134Z,94592.22
2022-09-11T09:14:47.848Z,94624.16
2022-09-11T09:15:47.516Z,94622.59
2022-09-11T09:16:53.487Z,94621.78
2022-09-11T09:18:01.753Z,94612.84
2022-09-11T09:19:14.417Z,94476.44
2022-09-11T09:20:14.825Z,94575.66
2022-09-11T09:21:35.371Z,94609.97
2022-09-11T09:22:44.383Z,94618.41
2022-09-11T09:23:52.967Z,94607.03
2022-09-11T09:24:54.576Z,94623.47
2022-09-11T09:25:56.024Z,94498.81
2022-09-11T09:26:57.056Z,94581.53
2022-09-11T09:28:01.314Z,94619.19
2022-09-11T09:29:05.845Z,94617.53
2022-09-11T09:30:07.554Z,94620.22
2022-09-11T09:31:10.335Z,94618.22
2022-09-11T09:32:22.609Z,94552.97
2022-09-11T09:33:34.607Z,94490.06
2022-09-11T09:34:37.430Z,94570.69
2022-09-11T09:35:45.278Z,94609.97
2022-09-11T09:36:55.603Z,94601.09
2022-09-11T09:37:52.626Z,94471.56
2022-09-11T09:38:49.429Z,94600.13
2022-09-11T09:39:46.916Z,94586.78
2022-09-11T09:41:12.195Z,94574.38
2022-09-11T09:42:14.879Z,94589.38
2022-09-11T09:43:37.176Z,94590.47
2022-09-11T09:44:52.280Z,94596.66
2022-09-11T09:46:10.778Z,94591.47
2022-09-11T09:47:12.258Z,94597.56
2022-09-11T09:48:11.500Z,94578.84
2022-09-11T09:49:24.645Z,94600.13
2022-09-11T09:50:34.048Z,94558.75
2022-09-11T09:51:30.731Z,94594.16
2022-09-11T09:52:36.126Z,94604.47
2022-09-11T09:53:54.674Z,94551.81
2022-09-11T09:55:01.356Z,94585.94
2022-09-11T09:56:00.608Z,94588.34
2022-09-11T09:57:04.985Z,94589.13
2022-09-11T09:58:02.576Z,94599.88
2022-09-11T09:59:09.350Z,94534.88
2022-09-11T10:00:09.471Z,94583.38
2022-09-11T10:01:40.153Z,94573.41
2022-09-11T10:02:41.683Z,94569.25
2022-09-11T10:03:39.305Z,94583.56
2022-09-11T10:04:36.246Z,94587.25
2022-09-11T10:05:54.594Z,94578.75
2022-09-11T10:06:55.354Z,94583.13
2022-09-11T10:08:03.178Z,94563.22
2022-09-11T10:09:03.268Z,94556.22
2022-09-11T10:10:03.602Z,94567.19
2022-09-11T10:11:10.985Z,94556.16
2022-09-11T10:12:16.788Z,94435.94
2022-09-11T10:13:26.236Z,94525.19
2022-09-11T10:14:49.846Z,94562.63
2022-09-11T10:15:41.723Z,94576.72
2022-09-11T10:16:38.635Z,94555.19
2022-09-11T10:17:38.395Z,94573.56
2022-09-11T10:18:42.781Z,94570.78
2022-09-11T10:19:42.998Z,94569.94
2022-09-11T10:20:39.708Z,94510.78
2022-09-11T10:21:37.507Z,94560.03
2022-09-11T10:22:35.275Z,94575.44
2022-09-11T10:23:53.389Z,94564.28
2022-09-11T10:25:00.113Z,94519.47
2022-09-11T10:25:56.858Z,94568.97
2022-09-11T10:26:55.984Z,94565.41
2022-09-11T10:28:25.012Z,94575.00
2022-09-11T10:29:32.613Z,94555.78
2022-09-11T10:30:37.253Z,94559.47
2022-09-11T10:31:38.910Z,94564.47
2022-09-11T10:32:42.298Z,94464.31
2022-09-11T10:33:45.497Z,94575.78
2022-09-11T10:34:43.555Z,94565.28
2022-09-11T10:35:40.404Z,94569.41
2022-09-11T10:36:37.226Z,94572.38
2022-09-11T10:37:34.270Z,94573.56
2022-09-11T10:38:38.105Z,94554.25
2022-09-11T10:39:39.695Z,94520.56
2022-09-11T10:40:38.918Z,94564.91
2022-09-11T10:41:36.830Z,94560.34
2022-09-11T10:42:37.829Z,94554.16
2022-09-11T10:43:47.694Z,94554.44
2022-09-11T10:44:47.353Z,94536.88
2022-09-11T10:46:06.530Z,94561.50
2022-09-11T10:47:04.822Z,94546.91
2022-09-11T10:48:23.426Z,94528.97
2022-09-11T10:49:22.820Z,94564.13
2022-09-11T10:50:22.163Z,94537.25
2022-09-11T10:51:18.962Z,94547.03
2022-09-11T10:52:15.654Z,94541.06
2022-09-11T10:54:16.863Z,94537.84
2022-09-11T10:55:15.682Z,94556.19
2022-09-11T10:56:12.610Z,94189.75
2022-09-11T10:57:23.497Z,94545.50
2022-09-11T10:58:29.665Z,94561.03
2022-09-11T10:59:43.337Z,94557.34
2022-09-11T11:00:40.528Z,94507.44
2022-09-11T11:01:37.548Z,94541.97
2022-09-11T11:02:38.887Z,94541.75
2022-09-11T11:03:36.117Z,94528.16
2022-09-11T11:04:33.967Z,94546.66
2022-09-11T11:05:45.836Z,94544.59
2022-09-11T11:06:54.661Z,94533.91
2022-09-11T11:08:30.846Z,94539.03
2022-09-11T11:09:54.351Z,94499.63
2022-09-11T11:11:32.450Z,94536.22
2022-09-11T11:12:41.241Z,94534.94
2022-09-11T11:13:37.893Z,94533.06
2022-09-11T11:14:44.097Z,94529.75
2022-09-11T11:16:06.676Z,94530.41
2022-09-11T11:17:49.084Z,94524.75
2022-09-11T11:18:56.608Z,94536.53
2022-09-11T11:20:13.783Z,94531.56
2022-09-11T11:21:47.077Z,94525.72
2022-09-11T11:23:08.134Z,94524.00
2022-09-11T11:24:21.882Z,94499.81
2022-09-11T11:25:34.360Z,94508.25
2022-09-11T11:26:49.353Z,94510.09
2022-09-11T11:28:21.812Z,94526.13
2022-09-11T11:29:18.448Z,94508.69
2022-09-11T11:30:19.494Z,94527.72
2022-09-11T11:31:28.118Z,94506.94
2022-09-11T11:32:49.608Z,94502.56
2022-09-11T11:34:11.693Z,94496.28
2022-09-11T11:35:20.407Z,94496.63
2022-09-11T11:36:38.303Z,94498.84
2022-09-11T11:37:42.714Z,94516.56
2022-09-11T11:39:12.707Z,94438.25
2022-09-11T11:40:24.494Z,94496.81
2022-09-11T11:41:30.619Z,94474.72
2022-09-11T11:42:44.019Z,94504.16
2022-09-11T11:43:44.036Z,94485.81
2022-09-11T11:44:52.073Z,94500.00
2022-09-11T11:46:02.323Z,94449.91
2022-09-11T11:47:05.878Z,94338.25
2022-09-11T11:48:26.239Z,94349.13
2022-09-11T11:50:03.421Z,94487.19
2022-09-11T11:51:07.745Z,94493.00
2022-09-11T11:52:36.393Z,94490.28
2022-09-11T11:53:59.026Z,94492.81
2022-09-11T11:55:20.791Z,94481.94
2022-09-11T11:56:50.446Z,94505.00
2022-09-11T11:58:07.828Z,94490.06
2022-09-11T11:59:35.406Z,94480.25
2022-09-11T12:00:42.094Z,94468.47
2022-09-11T12:01:48.654Z,94483.69
2022-09-11T12:02:49.559Z,94479.84
2022-09-11T12:04:27.743Z,94454.78
2022-09-11T12:05:30.260Z,94466.91
2022-09-11T12:06:27.106Z,94495.72
2022-09-11T12:07:36.706Z,94467.50
2022-09-11T12:08:40.940Z,94488.19
2022-09-11T12:09:37.841Z,94472.09
2022-09-11T12:10:38.241Z,94483.84
2022-09-11T12:11:35.457Z,94474.94
2022-09-11T12:12:45.689Z,94473.63
2022-09-11T12:13:46.834Z,94476.84
2022-09-11T12:15:06.142Z,94485.34